sensor_id;sensor_type;location;lat;lon;timestamp;P1;durP1;ratioP1;P2;durP2;ratioP2
42478;SDS011;28110;47.080;9.476;2022-12-07T00:01:04;3.72;;;1.80;;
42478;SDS011;28110;47.080;9.476;2022-12-07T00:03:34;4.47;;;2.17;;
42478;SDS011;28110;47.080;9.476;2022-12-07T00:06:00;6.05;;;2.03;;
42478;SDS011;28110;47.080;9.476;2022-12-07T00:08:27;5.72;;;2.38;;
42478;SDS011;28110;47.080;9.476;2022-12-07T00:10:53;5.30;;;2.58;;
42478;SDS011;28110;47.080;9.476;2022-12-07T00:13:18;4.33;;;1.77;;
42478;SDS011;28110;47.080;9.476;2022-12-07T00:15:44;4.00;;;1.40;;
42478;SDS011;28110;47.080;9.476;2022-12-07T00:18:09;2.85;;;1.48;;
42478;SDS011;28110;47.080;9.476;2022-12-07T00:20:35;2.57;;;1.13;;
42478;SDS011;28110;47.080;9.476;2022-12-07T00:23:01;2.20;;;1.00;;
42478;SDS011;28110;47.080;9.476;2022-12-07T00:25:26;5.90;;;2.38;;
42478;SDS011;28110;47.080;9.476;2022-12-07T00:27:52;7.27;;;3.17;;
42478;SDS011;28110;47.080;9.476;2022-12-07T00:30:20;11.65;;;5.70;;
42478;SDS011;28110;47.080;9.476;2022-12-07T00:32:46;8.27;;;4.73;;
42478;SDS011;28110;47.080;9.476;2022-12-07T00:35:11;6.40;;;2.70;;
42478;SDS011;28110;47.080;9.476;2022-12-07T00:37:37;4.63;;;2.07;;
42478;SDS011;28110;47.080;9.476;2022-12-07T00:40:03;6.18;;;1.65;;
42478;SDS011;28110;47.080;9.476;2022-12-07T00:42:29;2.77;;;1.60;;
42478;SDS011;28110;47.080;9.476;2022-12-07T00:44:54;4.32;;;1.70;;
42478;SDS011;28110;47.080;9.476;2022-12-07T00:47:20;4.07;;;1.80;;
42478;SDS011;28110;47.080;9.476;2022-12-07T00:49:45;5.57;;;1.97;;
42478;SDS011;28110;47.080;9.476;2022-12-07T00:52:11;3.67;;;1.80;;
42478;SDS011;28110;47.080;9.476;2022-12-07T00:54:36;3.13;;;1.57;;
42478;SDS011;28110;47.080;9.476;2022-12-07T00:57:02;9.87;;;2.00;;
42478;SDS011;28110;47.080;9.476;2022-12-07T00:59:27;3.70;;;1.70;;
42478;SDS011;28110;47.080;9.476;2022-12-07T01:01:53;2.70;;;1.42;;
42478;SDS011;28110;47.080;9.476;2022-12-07T01:04:18;5.53;;;2.03;;
42478;SDS011;28110;47.080;9.476;2022-12-07T01:06:44;3.83;;;1.90;;
42478;SDS011;28110;47.080;9.476;2022-12-07T01:09:09;3.73;;;1.90;;
42478;SDS011;28110;47.080;9.476;2022-12-07T01:11:35;3.78;;;2.13;;
42478;SDS011;28110;47.080;9.476;2022-12-07T01:14:01;5.43;;;2.50;;
42478;SDS011;28110;47.080;9.476;2022-12-07T01:16:27;6.28;;;2.28;;
42478;SDS011;28110;47.080;9.476;2022-12-07T01:18:55;6.50;;;2.10;;
42478;SDS011;28110;47.080;9.476;2022-12-07T01:21:23;3.92;;;1.80;;
42478;SDS011;28110;47.080;9.476;2022-12-07T01:23:49;5.67;;;2.17;;
42478;SDS011;28110;47.080;9.476;2022-12-07T01:26:16;4.57;;;2.00;;
42478;SDS011;28110;47.080;9.476;2022-12-07T01:28:44;4.07;;;1.90;;
42478;SDS011;28110;47.080;9.476;2022-12-07T01:31:11;4.22;;;1.90;;
42478;SDS011;28110;47.080;9.476;2022-12-07T01:33:44;3.50;;;1.73;;
42478;SDS011;28110;47.080;9.476;2022-12-07T01:36:15;4.00;;;2.00;;
42478;SDS011;28110;47.080;9.476;2022-12-07T01:38:43;4.72;;;2.20;;
42478;SDS011;28110;47.080;9.476;2022-12-07T01:41:10;5.93;;;2.40;;
42478;SDS011;28110;47.080;9.476;2022-12-07T01:43:36;3.78;;;2.00;;
42478;SDS011;28110;47.080;9.476;2022-12-07T01:46:02;8.87;;;2.53;;
42478;SDS011;28110;47.080;9.476;2022-12-07T01:48:36;5.25;;;2.42;;
42478;SDS011;28110;47.080;9.476;2022-12-07T01:51:06;4.70;;;2.38;;
42478;SDS011;28110;47.080;9.476;2022-12-07T01:53:35;7.18;;;2.72;;
42478;SDS011;28110;47.080;9.476;2022-12-07T01:56:03;7.83;;;2.90;;
42478;SDS011;28110;47.080;9.476;2022-12-07T01:58:29;7.40;;;2.03;;
42478;SDS011;28110;47.080;9.476;2022-12-07T02:00:55;8.93;;;2.53;;
42478;SDS011;28110;47.080;9.476;2022-12-07T02:03:27;3.80;;;2.13;;
42478;SDS011;28110;47.080;9.476;2022-12-07T02:05:57;5.28;;;2.67;;
42478;SDS011;28110;47.080;9.476;2022-12-07T02:08:24;6.32;;;1.90;;
42478;SDS011;28110;47.080;9.476;2022-12-07T02:10:50;4.18;;;2.08;;
42478;SDS011;28110;47.080;9.476;2022-12-07T02:13:19;4.53;;;2.37;;
42478;SDS011;28110;47.080;9.476;2022-12-07T02:21:36;3.60;;;2.00;;
42478;SDS011;28110;47.080;9.476;2022-12-07T02:24:31;5.70;;;2.55;;
42478;SDS011;28110;47.080;9.476;2022-12-07T02:27:27;4.35;;;2.33;;
42478;SDS011;28110;47.080;9.476;2022-12-07T02:32:51;4.18;;;2.20;;
42478;SDS011;28110;47.080;9.476;2022-12-07T02:38:14;6.68;;;3.30;;
42478;SDS011;28110;47.080;9.476;2022-12-07T02:40:48;13.45;;;5.93;;
42478;SDS011;28110;47.080;9.476;2022-12-07T02:43:38;14.48;;;7.13;;
42478;SDS011;28110;47.080;9.476;2022-12-07T02:46:08;15.85;;;6.97;;
42478;SDS011;28110;47.080;9.476;2022-12-07T02:48:38;16.37;;;7.73;;
42478;SDS011;28110;47.080;9.476;2022-12-07T02:51:04;15.50;;;7.53;;
42478;SDS011;28110;47.080;9.476;2022-12-07T03:04:02;17.40;;;8.35;;
42478;SDS011;28110;47.080;9.476;2022-12-07T03:06:36;18.58;;;8.55;;
42478;SDS011;28110;47.080;9.476;2022-12-07T03:09:44;17.03;;;8.20;;
42478;SDS011;28110;47.080;9.476;2022-12-07T03:12:09;17.00;;;8.73;;
42478;SDS011;28110;47.080;9.476;2022-12-07T03:14:44;16.25;;;8.15;;
42478;SDS011;28110;47.080;9.476;2022-12-07T03:17:18;25.20;;;9.70;;
42478;SDS011;28110;47.080;9.476;2022-12-07T03:19:49;18.30;;;8.48;;
42478;SDS011;28110;47.080;9.476;2022-12-07T03:22:18;15.63;;;8.33;;
42478;SDS011;28110;47.080;9.476;2022-12-07T03:27:25;17.50;;;8.63;;
42478;SDS011;28110;47.080;9.476;2022-12-07T03:30:02;19.40;;;9.23;;
42478;SDS011;28110;47.080;9.476;2022-12-07T03:32:32;15.85;;;8.50;;
42478;SDS011;28110;47.080;9.476;2022-12-07T03:35:07;17.63;;;9.07;;
42478;SDS011;28110;47.080;9.476;2022-12-07T03:37:55;19.73;;;9.82;;
42478;SDS011;28110;47.080;9.476;2022-12-07T03:43:00;20.00;;;10.13;;
42478;SDS011;28110;47.080;9.476;2022-12-07T03:45:31;18.85;;;10.30;;
42478;SDS011;28110;47.080;9.476;2022-12-07T03:48:19;18.33;;;9.70;;
42478;SDS011;28110;47.080;9.476;2022-12-07T03:53:52;18.90;;;9.45;;
42478;SDS011;28110;47.080;9.476;2022-12-07T03:56:45;16.05;;;8.68;;
42478;SDS011;28110;47.080;9.476;2022-12-07T03:59:12;20.13;;;8.98;;
42478;SDS011;28110;47.080;9.476;2022-12-07T04:01:41;17.20;;;8.00;;
42478;SDS011;28110;47.080;9.476;2022-12-07T04:04:08;15.48;;;7.93;;
42478;SDS011;28110;47.080;9.476;2022-12-07T04:06:33;16.20;;;8.63;;
42478;SDS011;28110;47.080;9.476;2022-12-07T04:08:59;16.92;;;8.32;;
42478;SDS011;28110;47.080;9.476;2022-12-07T04:11:25;14.20;;;7.43;;
42478;SDS011;28110;47.080;9.476;2022-12-07T04:13:50;16.57;;;7.67;;
42478;SDS011;28110;47.080;9.476;2022-12-07T04:16:34;14.52;;;6.97;;
42478;SDS011;28110;47.080;9.476;2022-12-07T04:19:00;13.90;;;6.90;;
42478;SDS011;28110;47.080;9.476;2022-12-07T04:21:25;14.20;;;6.07;;
42478;SDS011;28110;47.080;9.476;2022-12-07T04:23:51;12.33;;;6.43;;
42478;SDS011;28110;47.080;9.476;2022-12-07T04:26:16;15.60;;;5.50;;
42478;SDS011;28110;47.080;9.476;2022-12-07T04:28:42;13.25;;;5.40;;
42478;SDS011;28110;47.080;9.476;2022-12-07T04:31:07;10.53;;;5.37;;
42478;SDS011;28110;47.080;9.476;2022-12-07T04:33:34;10.02;;;5.15;;
42478;SDS011;28110;47.080;9.476;2022-12-07T04:36:00;11.00;;;5.00;;
42478;SDS011;28110;47.080;9.476;2022-12-07T04:38:26;8.50;;;4.60;;
42478;SDS011;28110;47.080;9.476;2022-12-07T04:40:51;9.30;;;4.20;;
42478;SDS011;28110;47.080;9.476;2022-12-07T04:43:17;8.63;;;3.85;;
42478;SDS011;28110;47.080;9.476;2022-12-07T04:45:46;7.93;;;3.60;;
42478;SDS011;28110;47.080;9.476;2022-12-07T04:48:12;6.90;;;3.63;;
42478;SDS011;28110;47.080;9.476;2022-12-07T04:50:38;7.73;;;3.37;;
42478;SDS011;28110;47.080;9.476;2022-12-07T04:53:03;7.43;;;3.13;;
42478;SDS011;28110;47.080;9.476;2022-12-07T04:55:29;9.18;;;3.30;;
42478;SDS011;28110;47.080;9.476;2022-12-07T04:57:54;8.53;;;3.23;;
42478;SDS011;28110;47.080;9.476;2022-12-07T05:00:20;7.53;;;3.47;;
42478;SDS011;28110;47.080;9.476;2022-12-07T05:02:46;7.35;;;2.92;;
42478;SDS011;28110;47.080;9.476;2022-12-07T05:05:11;5.53;;;3.07;;
42478;SDS011;28110;47.080;9.476;2022-12-07T05:07:37;5.63;;;2.87;;
42478;SDS011;28110;47.080;9.476;2022-12-07T05:10:02;6.70;;;3.22;;
42478;SDS011;28110;47.080;9.476;2022-12-07T05:12:28;8.10;;;3.00;;
42478;SDS011;28110;47.080;9.476;2022-12-07T05:14:54;6.53;;;2.70;;
42478;SDS011;28110;47.080;9.476;2022-12-07T05:17:19;7.73;;;2.60;;
42478;SDS011;28110;47.080;9.476;2022-12-07T05:19:45;7.70;;;2.30;;
42478;SDS011;28110;47.080;9.476;2022-12-07T05:22:10;5.10;;;2.25;;
42478;SDS011;28110;47.080;9.476;2022-12-07T05:24:36;16.63;;;5.80;;
42478;SDS011;28110;47.080;9.476;2022-12-07T05:27:01;10.77;;;4.27;;
42478;SDS011;28110;47.080;9.476;2022-12-07T05:29:27;4.80;;;2.42;;
42478;SDS011;28110;47.080;9.476;2022-12-07T05:31:52;4.63;;;2.90;;
42478;SDS011;28110;47.080;9.476;2022-12-07T05:34:18;3.87;;;1.97;;
42478;SDS011;28110;47.080;9.476;2022-12-07T05:36:43;5.30;;;2.10;;
42478;SDS011;28110;47.080;9.476;2022-12-07T05:39:09;3.43;;;1.60;;
42478;SDS011;28110;47.080;9.476;2022-12-07T05:41:35;4.90;;;1.73;;
42478;SDS011;28110;47.080;9.476;2022-12-07T05:44:20;5.85;;;1.77;;
42478;SDS011;28110;47.080;9.476;2022-12-07T05:46:45;4.27;;;1.90;;
42478;SDS011;28110;47.080;9.476;2022-12-07T05:49:11;4.90;;;1.90;;
42478;SDS011;28110;47.080;9.476;2022-12-07T05:51:36;5.68;;;1.50;;
42478;SDS011;28110;47.080;9.476;2022-12-07T05:54:02;3.60;;;1.57;;
42478;SDS011;28110;47.080;9.476;2022-12-07T05:56:27;9.80;;;1.80;;
42478;SDS011;28110;47.080;9.476;2022-12-07T05:58:53;5.32;;;1.48;;
42478;SDS011;28110;47.080;9.476;2022-12-07T06:01:38;2.92;;;1.50;;
42478;SDS011;28110;47.080;9.476;2022-12-07T06:04:03;4.23;;;1.93;;
42478;SDS011;28110;47.080;9.476;2022-12-07T06:06:29;4.90;;;2.37;;
42478;SDS011;28110;47.080;9.476;2022-12-07T06:08:54;12.43;;;1.98;;
42478;SDS011;28110;47.080;9.476;2022-12-07T06:11:20;8.60;;;1.77;;
42478;SDS011;28110;47.080;9.476;2022-12-07T06:14:04;6.63;;;2.17;;
42478;SDS011;28110;47.080;9.476;2022-12-07T06:16:30;6.97;;;3.03;;
42478;SDS011;28110;47.080;9.476;2022-12-07T06:18:55;14.80;;;6.03;;
42478;SDS011;28110;47.080;9.476;2022-12-07T06:21:21;14.90;;;5.75;;
42478;SDS011;28110;47.080;9.476;2022-12-07T06:23:46;14.97;;;4.80;;
42478;SDS011;28110;47.080;9.476;2022-12-07T06:26:13;9.43;;;3.55;;
42478;SDS011;28110;47.080;9.476;2022-12-07T06:28:38;12.07;;;4.73;;
42478;SDS011;28110;47.080;9.476;2022-12-07T06:31:04;10.95;;;3.05;;
42478;SDS011;28110;47.080;9.476;2022-12-07T06:33:29;4.43;;;2.40;;
42478;SDS011;28110;47.080;9.476;2022-12-07T06:35:55;8.23;;;2.30;;
42478;SDS011;28110;47.080;9.476;2022-12-07T06:38:21;5.10;;;2.10;;
42478;SDS011;28110;47.080;9.476;2022-12-07T06:40:46;6.93;;;2.37;;
42478;SDS011;28110;47.080;9.476;2022-12-07T06:43:13;6.50;;;3.20;;
42478;SDS011;28110;47.080;9.476;2022-12-07T06:45:38;6.53;;;2.60;;
42478;SDS011;28110;47.080;9.476;2022-12-07T06:48:05;4.13;;;2.40;;
42478;SDS011;28110;47.080;9.476;2022-12-07T06:50:31;4.50;;;2.10;;
42478;SDS011;28110;47.080;9.476;2022-12-07T06:52:56;5.73;;;2.20;;
42478;SDS011;28110;47.080;9.476;2022-12-07T06:55:22;4.85;;;1.55;;
42478;SDS011;28110;47.080;9.476;2022-12-07T06:57:47;6.28;;;1.77;;
42478;SDS011;28110;47.080;9.476;2022-12-07T07:00:13;4.67;;;1.87;;
42478;SDS011;28110;47.080;9.476;2022-12-07T07:02:39;3.45;;;1.98;;
42478;SDS011;28110;47.080;9.476;2022-12-07T07:05:05;4.87;;;2.47;;
42478;SDS011;28110;47.080;9.476;2022-12-07T07:07:30;10.15;;;2.30;;
42478;SDS011;28110;47.080;9.476;2022-12-07T07:09:56;6.57;;;2.10;;
42478;SDS011;28110;47.080;9.476;2022-12-07T07:12:21;6.33;;;2.67;;
42478;SDS011;28110;47.080;9.476;2022-12-07T07:14:47;5.70;;;2.55;;
42478;SDS011;28110;47.080;9.476;2022-12-07T07:17:12;4.73;;;1.77;;
42478;SDS011;28110;47.080;9.476;2022-12-07T07:19:38;6.73;;;2.20;;
42478;SDS011;28110;47.080;9.476;2022-12-07T07:22:04;6.13;;;2.50;;
42478;SDS011;28110;47.080;9.476;2022-12-07T07:24:29;4.13;;;2.17;;
42478;SDS011;28110;47.080;9.476;2022-12-07T07:26:55;5.53;;;2.10;;
42478;SDS011;28110;47.080;9.476;2022-12-07T07:29:21;4.60;;;2.00;;
42478;SDS011;28110;47.080;9.476;2022-12-07T07:31:46;5.73;;;2.50;;
42478;SDS011;28110;47.080;9.476;2022-12-07T07:34:12;4.87;;;2.30;;
42478;SDS011;28110;47.080;9.476;2022-12-07T07:36:37;3.75;;;2.00;;
42478;SDS011;28110;47.080;9.476;2022-12-07T07:39:03;4.17;;;2.00;;
42478;SDS011;28110;47.080;9.476;2022-12-07T07:41:28;4.87;;;2.07;;
42478;SDS011;28110;47.080;9.476;2022-12-07T07:43:54;4.93;;;1.83;;
42478;SDS011;28110;47.080;9.476;2022-12-07T07:46:19;3.30;;;2.00;;
42478;SDS011;28110;47.080;9.476;2022-12-07T07:48:45;6.85;;;2.13;;
42478;SDS011;28110;47.080;9.476;2022-12-07T07:51:11;4.93;;;2.10;;
42478;SDS011;28110;47.080;9.476;2022-12-07T07:53:36;5.33;;;1.90;;
42478;SDS011;28110;47.080;9.476;2022-12-07T07:56:02;4.80;;;2.07;;
42478;SDS011;28110;47.080;9.476;2022-12-07T07:58:28;3.72;;;1.60;;
42478;SDS011;28110;47.080;9.476;2022-12-07T08:00:54;3.35;;;1.83;;
42478;SDS011;28110;47.080;9.476;2022-12-07T08:03:19;4.03;;;1.97;;
42478;SDS011;28110;47.080;9.476;2022-12-07T08:05:45;3.17;;;1.67;;
42478;SDS011;28110;47.080;9.476;2022-12-07T08:08:11;3.73;;;1.80;;
42478;SDS011;28110;47.080;9.476;2022-12-07T08:10:36;4.23;;;1.77;;
42478;SDS011;28110;47.080;9.476;2022-12-07T08:13:02;2.97;;;1.40;;
42478;SDS011;28110;47.080;9.476;2022-12-07T08:15:38;1.73;;;0.93;;
42478;SDS011;28110;47.080;9.476;2022-12-07T08:18:05;1.95;;;1.30;;
42478;SDS011;28110;47.080;9.476;2022-12-07T08:20:32;1.90;;;1.20;;
42478;SDS011;28110;47.080;9.476;2022-12-07T08:22:58;3.65;;;0.90;;
42478;SDS011;28110;47.080;9.476;2022-12-07T08:25:24;3.35;;;1.23;;
42478;SDS011;28110;47.080;9.476;2022-12-07T08:27:50;2.57;;;1.00;;
42478;SDS011;28110;47.080;9.476;2022-12-07T08:30:16;2.90;;;1.08;;
42478;SDS011;28110;47.080;9.476;2022-12-07T08:32:43;2.10;;;1.10;;
42478;SDS011;28110;47.080;9.476;2022-12-07T08:35:09;2.95;;;1.40;;
42478;SDS011;28110;47.080;9.476;2022-12-07T08:37:35;4.83;;;1.73;;
42478;SDS011;28110;47.080;9.476;2022-12-07T08:40:02;2.80;;;1.20;;
42478;SDS011;28110;47.080;9.476;2022-12-07T08:42:28;2.22;;;1.27;;
42478;SDS011;28110;47.080;9.476;2022-12-07T08:45:02;6.20;;;1.40;;
42478;SDS011;28110;47.080;9.476;2022-12-07T08:47:31;2.97;;;1.30;;
42478;SDS011;28110;47.080;9.476;2022-12-07T08:49:58;2.97;;;1.13;;
42478;SDS011;28110;47.080;9.476;2022-12-07T08:52:28;1.67;;;0.90;;
42478;SDS011;28110;47.080;9.476;2022-12-07T08:54:54;2.85;;;1.10;;
42478;SDS011;28110;47.080;9.476;2022-12-07T08:57:21;1.33;;;0.80;;
42478;SDS011;28110;47.080;9.476;2022-12-07T08:59:46;2.70;;;0.85;;
42478;SDS011;28110;47.080;9.476;2022-12-07T09:02:12;3.70;;;1.00;;
42478;SDS011;28110;47.080;9.476;2022-12-07T09:04:37;3.50;;;1.20;;
42478;SDS011;28110;47.080;9.476;2022-12-07T09:07:03;5.20;;;1.47;;
42478;SDS011;28110;47.080;9.476;2022-12-07T09:09:29;2.13;;;1.10;;
42478;SDS011;28110;47.080;9.476;2022-12-07T09:11:54;2.90;;;1.10;;
42478;SDS011;28110;47.080;9.476;2022-12-07T09:14:20;3.17;;;1.60;;
42478;SDS011;28110;47.080;9.476;2022-12-07T09:16:46;1.85;;;0.85;;
42478;SDS011;28110;47.080;9.476;2022-12-07T09:19:11;4.10;;;1.00;;
42478;SDS011;28110;47.080;9.476;2022-12-07T09:21:37;3.35;;;1.15;;
42478;SDS011;28110;47.080;9.476;2022-12-07T09:24:02;3.63;;;1.33;;
42478;SDS011;28110;47.080;9.476;2022-12-07T09:26:28;6.33;;;1.27;;
42478;SDS011;28110;47.080;9.476;2022-12-07T09:28:54;5.05;;;1.08;;
42478;SDS011;28110;47.080;9.476;2022-12-07T09:31:19;3.87;;;1.23;;
42478;SDS011;28110;47.080;9.476;2022-12-07T09:33:45;4.67;;;1.40;;
42478;SDS011;28110;47.080;9.476;2022-12-07T09:36:10;8.32;;;1.55;;
42478;SDS011;28110;47.080;9.476;2022-12-07T09:38:36;7.17;;;1.60;;
42478;SDS011;28110;47.080;9.476;2022-12-07T09:41:05;9.57;;;1.50;;
42478;SDS011;28110;47.080;9.476;2022-12-07T09:43:31;6.72;;;1.63;;
42478;SDS011;28110;47.080;9.476;2022-12-07T09:45:59;10.30;;;1.23;;
42478;SDS011;28110;47.080;9.476;2022-12-07T09:48:35;5.53;;;1.40;;
42478;SDS011;28110;47.080;9.476;2022-12-07T09:51:10;1.95;;;0.95;;
42478;SDS011;28110;47.080;9.476;2022-12-07T09:53:45;2.50;;;0.98;;
42478;SDS011;28110;47.080;9.476;2022-12-07T09:56:15;3.00;;;1.02;;
42478;SDS011;28110;47.080;9.476;2022-12-07T09:58:42;5.07;;;1.47;;
42478;SDS011;28110;47.080;9.476;2022-12-07T10:03:40;3.70;;;0.90;;
42478;SDS011;28110;47.080;9.476;2022-12-07T10:06:09;4.60;;;1.20;;
42478;SDS011;28110;47.080;9.476;2022-12-07T10:08:37;4.38;;;1.05;;
42478;SDS011;28110;47.080;9.476;2022-12-07T10:11:03;4.90;;;1.10;;
42478;SDS011;28110;47.080;9.476;2022-12-07T10:13:39;5.70;;;1.13;;
42478;SDS011;28110;47.080;9.476;2022-12-07T10:19:16;14.07;;;1.83;;
42478;SDS011;28110;47.080;9.476;2022-12-07T10:22:10;3.45;;;1.30;;
42478;SDS011;28110;47.080;9.476;2022-12-07T10:24:38;8.43;;;1.15;;
42478;SDS011;28110;47.080;9.476;2022-12-07T10:27:16;7.00;;;1.50;;
42478;SDS011;28110;47.080;9.476;2022-12-07T10:29:48;7.80;;;1.43;;
42478;SDS011;28110;47.080;9.476;2022-12-07T10:34:41;2.33;;;1.10;;
42478;SDS011;28110;47.080;9.476;2022-12-07T10:45:07;8.25;;;1.35;;
42478;SDS011;28110;47.080;9.476;2022-12-07T10:47:44;16.40;;;2.53;;
42478;SDS011;28110;47.080;9.476;2022-12-07T10:55:52;10.68;;;1.50;;
42478;SDS011;28110;47.080;9.476;2022-12-07T11:01:23;4.40;;;1.13;;
42478;SDS011;28110;47.080;9.476;2022-12-07T11:04:03;5.47;;;1.33;;
42478;SDS011;28110;47.080;9.476;2022-12-07T11:15:17;7.50;;;1.40;;
42478;SDS011;28110;47.080;9.476;2022-12-07T11:35:05;4.22;;;1.40;;
42478;SDS011;28110;47.080;9.476;2022-12-07T11:37:40;2.28;;;1.10;;
42478;SDS011;28110;47.080;9.476;2022-12-07T11:42:36;5.03;;;1.43;;
42478;SDS011;28110;47.080;9.476;2022-12-07T11:45:15;3.05;;;1.30;;
42478;SDS011;28110;47.080;9.476;2022-12-07T11:47:45;7.18;;;1.60;;
42478;SDS011;28110;47.080;9.476;2022-12-07T11:55:42;5.55;;;1.25;;
42478;SDS011;28110;47.080;9.476;2022-12-07T11:58:21;5.78;;;1.85;;
42478;SDS011;28110;47.080;9.476;2022-12-07T12:00:55;6.60;;;1.45;;
42478;SDS011;28110;47.080;9.476;2022-12-07T12:03:40;7.65;;;1.85;;
42478;SDS011;28110;47.080;9.476;2022-12-07T12:06:11;5.90;;;1.83;;
42478;SDS011;28110;47.080;9.476;2022-12-07T12:08:46;7.78;;;2.25;;
42478;SDS011;28110;47.080;9.476;2022-12-07T12:11:39;7.05;;;2.58;;
42478;SDS011;28110;47.080;9.476;2022-12-07T12:14:14;6.57;;;1.90;;
42478;SDS011;28110;47.080;9.476;2022-12-07T12:19:22;8.50;;;1.70;;
42478;SDS011;28110;47.080;9.476;2022-12-07T12:22:02;6.72;;;2.15;;
42478;SDS011;28110;47.080;9.476;2022-12-07T12:24:35;7.47;;;2.55;;
42478;SDS011;28110;47.080;9.476;2022-12-07T12:27:08;9.45;;;2.88;;
42478;SDS011;28110;47.080;9.476;2022-12-07T12:29:42;5.40;;;2.22;;
42478;SDS011;28110;47.080;9.476;2022-12-07T12:32:16;7.00;;;2.50;;
42478;SDS011;28110;47.080;9.476;2022-12-07T12:43:02;5.85;;;3.20;;
42478;SDS011;28110;47.080;9.476;2022-12-07T12:47:54;15.27;;;3.70;;
42478;SDS011;28110;47.080;9.476;2022-12-07T12:55:22;8.47;;;4.10;;
42478;SDS011;28110;47.080;9.476;2022-12-07T13:00:47;9.50;;;4.22;;
42478;SDS011;28110;47.080;9.476;2022-12-07T13:03:34;9.47;;;4.37;;
42478;SDS011;28110;47.080;9.476;2022-12-07T13:06:16;10.35;;;4.20;;
42478;SDS011;28110;47.080;9.476;2022-12-07T13:08:58;12.48;;;4.30;;
42478;SDS011;28110;47.080;9.476;2022-12-07T13:11:28;12.95;;;4.32;;
42478;SDS011;28110;47.080;9.476;2022-12-07T13:17:06;11.43;;;4.33;;
42478;SDS011;28110;47.080;9.476;2022-12-07T13:30:42;9.00;;;3.63;;
42478;SDS011;28110;47.080;9.476;2022-12-07T13:33:15;11.02;;;4.18;;
42478;SDS011;28110;47.080;9.476;2022-12-07T13:35:43;9.60;;;4.40;;
42478;SDS011;28110;47.080;9.476;2022-12-07T13:41:10;9.83;;;4.43;;
42478;SDS011;28110;47.080;9.476;2022-12-07T13:43:42;15.38;;;4.28;;
42478;SDS011;28110;47.080;9.476;2022-12-07T13:46:34;11.52;;;4.45;;
42478;SDS011;28110;47.080;9.476;2022-12-07T13:49:01;10.23;;;4.57;;
42478;SDS011;28110;47.080;9.476;2022-12-07T13:51:28;12.05;;;4.22;;
42478;SDS011;28110;47.080;9.476;2022-12-07T13:54:00;10.07;;;4.17;;
42478;SDS011;28110;47.080;9.476;2022-12-07T13:56:34;10.48;;;4.18;;
42478;SDS011;28110;47.080;9.476;2022-12-07T13:59:00;12.40;;;4.70;;
42478;SDS011;28110;47.080;9.476;2022-12-07T14:01:28;12.45;;;3.80;;
42478;SDS011;28110;47.080;9.476;2022-12-07T14:03:55;12.48;;;4.32;;
42478;SDS011;28110;47.080;9.476;2022-12-07T14:06:46;9.17;;;4.13;;
42478;SDS011;28110;47.080;9.476;2022-12-07T14:09:18;10.02;;;4.00;;
42478;SDS011;28110;47.080;9.476;2022-12-07T14:11:47;9.50;;;4.32;;
42478;SDS011;28110;47.080;9.476;2022-12-07T14:14:16;16.15;;;4.53;;
42478;SDS011;28110;47.080;9.476;2022-12-07T14:16:54;11.07;;;3.72;;
42478;SDS011;28110;47.080;9.476;2022-12-07T14:19:44;10.50;;;4.43;;
42478;SDS011;28110;47.080;9.476;2022-12-07T14:22:20;12.13;;;3.97;;
42478;SDS011;28110;47.080;9.476;2022-12-07T14:24:48;11.80;;;4.18;;
42478;SDS011;28110;47.080;9.476;2022-12-07T14:27:21;11.45;;;4.28;;
42478;SDS011;28110;47.080;9.476;2022-12-07T14:29:51;11.53;;;3.87;;
42478;SDS011;28110;47.080;9.476;2022-12-07T14:32:21;9.65;;;3.80;;
42478;SDS011;28110;47.080;9.476;2022-12-07T14:35:12;8.35;;;3.45;;
42478;SDS011;28110;47.080;9.476;2022-12-07T14:37:38;10.40;;;3.67;;
42478;SDS011;28110;47.080;9.476;2022-12-07T14:40:05;10.20;;;3.88;;
42478;SDS011;28110;47.080;9.476;2022-12-07T14:42:32;7.57;;;3.50;;
42478;SDS011;28110;47.080;9.476;2022-12-07T14:44:59;12.07;;;3.47;;
42478;SDS011;28110;47.080;9.476;2022-12-07T14:47:25;9.88;;;3.80;;
42478;SDS011;28110;47.080;9.476;2022-12-07T14:49:52;12.35;;;3.90;;
42478;SDS011;28110;47.080;9.476;2022-12-07T14:52:21;11.43;;;3.70;;
42478;SDS011;28110;47.080;9.476;2022-12-07T14:54:49;6.90;;;3.50;;
42478;SDS011;28110;47.080;9.476;2022-12-07T14:57:15;8.18;;;3.67;;
42478;SDS011;28110;47.080;9.476;2022-12-07T14:59:40;7.70;;;3.63;;
42478;SDS011;28110;47.080;9.476;2022-12-07T15:02:06;10.60;;;4.03;;
42478;SDS011;28110;47.080;9.476;2022-12-07T15:04:34;6.35;;;3.53;;
42478;SDS011;28110;47.080;9.476;2022-12-07T15:07:01;9.95;;;4.68;;
42478;SDS011;28110;47.080;9.476;2022-12-07T15:09:27;8.43;;;4.38;;
42478;SDS011;28110;47.080;9.476;2022-12-07T15:11:53;7.10;;;4.20;;
42478;SDS011;28110;47.080;9.476;2022-12-07T15:14:19;8.17;;;4.10;;
42478;SDS011;28110;47.080;9.476;2022-12-07T15:16:44;9.40;;;4.20;;
42478;SDS011;28110;47.080;9.476;2022-12-07T15:19:11;10.50;;;5.05;;
42478;SDS011;28110;47.080;9.476;2022-12-07T15:21:39;22.40;;;9.57;;
42478;SDS011;28110;47.080;9.476;2022-12-07T15:24:05;42.63;;;16.90;;
42478;SDS011;28110;47.080;9.476;2022-12-07T15:26:31;37.40;;;17.45;;
42478;SDS011;28110;47.080;9.476;2022-12-07T15:28:57;36.37;;;16.20;;
42478;SDS011;28110;47.080;9.476;2022-12-07T15:31:22;26.88;;;13.10;;
42478;SDS011;28110;47.080;9.476;2022-12-07T15:33:48;26.17;;;11.90;;
42478;SDS011;28110;47.080;9.476;2022-12-07T15:36:20;23.43;;;11.40;;
42478;SDS011;28110;47.080;9.476;2022-12-07T15:38:48;24.40;;;11.88;;
42478;SDS011;28110;47.080;9.476;2022-12-07T15:41:13;22.35;;;10.68;;
42478;SDS011;28110;47.080;9.476;2022-12-07T15:43:39;18.83;;;9.65;;
42478;SDS011;28110;47.080;9.476;2022-12-07T15:46:23;20.20;;;9.57;;
42478;SDS011;28110;47.080;9.476;2022-12-07T15:48:53;17.42;;;9.00;;
42478;SDS011;28110;47.080;9.476;2022-12-07T15:51:19;18.23;;;8.70;;
42478;SDS011;28110;47.080;9.476;2022-12-07T15:53:45;17.60;;;9.33;;
42478;SDS011;28110;47.080;9.476;2022-12-07T15:56:10;15.07;;;8.55;;
42478;SDS011;28110;47.080;9.476;2022-12-07T15:58:36;18.80;;;9.27;;
42478;SDS011;28110;47.080;9.476;2022-12-07T16:01:09;18.10;;;9.50;;
42478;SDS011;28110;47.080;9.476;2022-12-07T16:03:36;18.67;;;10.57;;
42478;SDS011;28110;47.080;9.476;2022-12-07T16:06:01;20.57;;;9.20;;
42478;SDS011;28110;47.080;9.476;2022-12-07T16:08:27;15.38;;;8.20;;
42478;SDS011;28110;47.080;9.476;2022-12-07T16:10:52;17.07;;;8.77;;
42478;SDS011;28110;47.080;9.476;2022-12-07T16:13:18;15.10;;;8.17;;
42478;SDS011;28110;47.080;9.476;2022-12-07T16:15:44;15.95;;;8.18;;
42478;SDS011;28110;47.080;9.476;2022-12-07T16:18:09;15.80;;;8.17;;
42478;SDS011;28110;47.080;9.476;2022-12-07T16:20:35;16.63;;;7.90;;
42478;SDS011;28110;47.080;9.476;2022-12-07T16:23:00;13.07;;;6.80;;
42478;SDS011;28110;47.080;9.476;2022-12-07T16:25:27;13.68;;;6.97;;
42478;SDS011;28110;47.080;9.476;2022-12-07T16:27:52;16.93;;;7.10;;
42478;SDS011;28110;47.080;9.476;2022-12-07T16:30:18;17.05;;;7.75;;
42478;SDS011;28110;47.080;9.476;2022-12-07T16:32:44;18.98;;;8.65;;
42478;SDS011;28110;47.080;9.476;2022-12-07T16:35:10;18.13;;;8.32;;
42478;SDS011;28110;47.080;9.476;2022-12-07T16:37:36;16.25;;;8.85;;
42478;SDS011;28110;47.080;9.476;2022-12-07T16:40:02;21.47;;;10.37;;
42478;SDS011;28110;47.080;9.476;2022-12-07T16:42:32;28.10;;;11.57;;
42478;SDS011;28110;47.080;9.476;2022-12-07T16:44:59;17.95;;;9.60;;
42478;SDS011;28110;47.080;9.476;2022-12-07T16:47:25;16.40;;;8.93;;
42478;SDS011;28110;47.080;9.476;2022-12-07T16:49:50;21.70;;;9.67;;
42478;SDS011;28110;47.080;9.476;2022-12-07T16:52:17;19.65;;;10.00;;
42478;SDS011;28110;47.080;9.476;2022-12-07T16:54:43;27.23;;;12.40;;
42478;SDS011;28110;47.080;9.476;2022-12-07T16:57:09;30.83;;;13.27;;
42478;SDS011;28110;47.080;9.476;2022-12-07T16:59:34;26.38;;;12.05;;